Cumming, Georgia
Current Conditions -  °F | °C
As of 7:15 PM on Saturday 20 Dec 2014 (Local Time) from KCNI Reporting Station
Haze Haze  
Wind Chill: 46°   Ceiling: 1100
Heat Index: 46°   Visibility: 5mi
Dew Point: 43°   Wind: 0mph
Humidity: 87%   Direction: NA
Pressure: 30.2"   Gusts: NA
Location:  34.21°N, 84.14°W
Report Text: KCNI 210015Z AUTO 00000KT 5SM BR OVC011 08/06 A3020 RMK AO2
Loading
Personal Weather Stations






























Interactive Weather Map New forecast layout! Learn more

10-Day Weather Forecast

Advertisements
Track Severe Weather on mobile